Pointblank, TX

05:01 PM CDT del 20 Settembre 2014 (GMT -0500)
KTXOAKHU2 | Change Station
CLOSE
Current Station
Stazione meteo personale
Location: Oakhurst, TX
Altitudine: 181 ft
Stazioni meteo nelle vicinanze

Alt. 181 ft 30.83 °N, 95.33 °W | Updated 7 seconds ago

Parzialmente nuvoloso
Parzialmente nuvoloso
87.5 °F
Sembra 99 °F
N
0.0
Vento Variabile Vento da Est
Gusts 0.0 mph

Oggi
Massima -- | Minima -- °F
--% Possibilità di precip.
Ieri
Massima -- | Minima -- °F
Precip. -- in
7:08 AM 7:20 PM
Luna calante, 10% visible
Pressione 29.91 in
Visibilità 10.0 miglia
Nuvole Nubi sparse 4700 ft
Indice di calore 99 °F
Punto di rugiada 76 °F
Umidità 70%
Piovosità 0.00 in
Spessore del manto nevoso Non disponibile.
Raggi UV 3 fuori da 12
Polline 9.20 fuori da 12
Ozono Buono
PM2.5 Buono
Flu Activity Non disponibile.
METAR KUTS 202153Z AUTO 07005KT 10SM SCT047 31/19 A2993 RMK AO2 SLP129 T03060189

More Conditions Fewer Conditions

Pressione 29.91 in
Visibilità 10.0 miglia
Nuvole Nubi sparse 4700 ft
Indice di calore 99 °F
Punto di rugiada 76 °F
Umidità 70%
Piovosità 0.00 in
Spessore del manto nevoso Non disponibile.
Raggi UV 3 fuori da 12
Polline 9.20 fuori da 12
Ozono Buono
PM2.5 Buono
Flu Activity Non disponibile.
METAR KUTS 202153Z AUTO 07005KT 10SM SCT047 31/19 A2993 RMK AO2 SLP129 T03060189

More Conditions Fewer Conditions

10-Day Weather Forecast

Almanac

Astronomia

Sep. 20, 2014 Alba Tramonto
Ora attuale 07:08 CDT 19:20 CDT
Crepuscolo civile 06:44 CDT 19:44 CDT
Crepuscolo nautico 06:15 CDT 20:12 CDT
Crepuscolo astronomico 05:47 CDT 20:40 CDT
Luna 03:59 CDT 17:15 CDT
Estensione della luce visibile 13h 00m
Lunghezza del giorno
12h 11m
Tomorrow will be 1m 51s shorter.
Luna calante, 10% of the Moon is Illuminated
Oggi
Luna calante
Set 24
Nuovo
Ott 1
Primo quarto
Ott 8
Luna piena
Ott 15
Ultimo quarto

Gli estremi di oggi

State Highs State Lows

Community

WunderPhotos

Upload Photos

1,754,966 foto caricate!

WunderBlogs® & News

Nearby

Qualità dell'aria

  Qualità dell'aria Indice AQ Inquinante
Ieri Buono
PM2.5
Ieri Buono
OZONE
Attuale Buono
OZONE
Attuale Buono
PM2.5
Sabato Buono
OZONE
Sabato Buono
PM10
Domenica Moderato
OZONE
Domenica Buono
PM10
Lunedì Moderato
OZONE
Lunedì Buono
PM10
Martedì Moderato
OZONE
Martedì Buono
PM10

Profondità neve

Stazione Profondità Altitudine
Non sono state evidenziate nuove nevicate

Attività sismica

Città  Distanza Mag. Data & Ora
Non sono state riportate attività sismiche nelle vicinanze.
Minimo Magnitudo Mostrato è 2.5.

Temperature delle acque costiere

Località Temperatura
Nessun dato dalle stazioni

Stazioni meteo nelle vicinanze